Time;durP1;ratioP1;P1;durP2;ratioP2;P2;SDS_P1;SDS_P2;PMS_P1;PMS_P2;Temp;Humidity;BMP_temperature;BMP_pressure;BME280_temperature;BME280_humidity;BME280_pressure;Samples;Min_cycle;Max_cycle;Signal;HPM_P1;HPM_P2
2023/04/21 00:01:00;;;;;;;10.67;5.17;;;9.10;99.90;;;;;;5010246;28;20389;-82
2023/04/21 00:03:27;;;;;;;12.97;5.27;;;9.10;99.90;;;;;;5010300;28;20266;-81
2023/04/21 00:05:57;;;;;;;7.27;5.37;;;9.10;99.90;;;;;;5025431;28;20633;-81
2023/04/21 00:08:25;;;;;;;5.20;4.80;;;9.10;99.90;;;;;;5025553;28;20613;-81
2023/04/21 00:10:51;;;;;;;4.87;3.63;;;9.10;99.90;;;;;;5025197;28;20200;-80
2023/04/21 00:13:17;;;;;;;4.43;4.03;;;9.10;99.90;;;;;;5025237;28;20265;-81
2023/04/21 00:15:43;;;;;;;6.10;3.90;;;9.10;99.90;;;;;;5025277;28;20179;-81
2023/04/21 00:18:08;;;;;;;8.97;6.27;;;9.10;99.90;;;;;;5009768;28;20286;-81
2023/04/21 00:20:35;;;;;;;5.90;4.47;;;9.10;99.90;;;;;;5010001;28;20183;-82
2023/04/21 00:23:02;;;;;;;8.83;4.67;;;9.20;99.90;;;;;;5010336;28;20241;-81
2023/04/21 00:25:28;;;;;;;10.50;4.30;;;9.20;99.90;;;;;;5009955;28;20180;-81
2023/04/21 00:27:53;;;;;;;5.67;4.67;;;9.30;99.90;;;;;;5025313;28;20680;-83
2023/04/21 00:30:19;;;;;;;5.83;4.43;;;9.30;99.90;;;;;;5025193;28;20620;-81
2023/04/21 00:32:45;;;;;;;7.47;5.77;;;9.40;99.90;;;;;;5024715;28;20223;-81
2023/04/21 00:35:11;;;;;;;7.63;5.07;;;9.40;99.90;;;;;;5009494;28;20187;-82
2023/04/21 00:37:36;;;;;;;10.00;5.63;;;9.40;99.90;;;;;;5009792;28;20244;-82
2023/04/21 00:40:03;;;;;;;4.20;3.80;;;9.40;99.90;;;;;;5009616;28;20188;-81
2023/04/21 00:42:29;;;;;;;5.30;4.80;;;9.50;99.90;;;;;;5009585;28;20586;-81
2023/04/21 00:44:55;;;;;;;3.83;3.57;;;9.50;99.90;;;;;;5009830;28;20187;-81
2023/04/21 00:47:21;;;;;;;5.87;5.07;;;9.50;99.90;;;;;;5009279;28;20644;-82
2023/04/21 00:49:47;;;;;;;8.93;5.43;;;9.50;99.90;;;;;;5009618;28;20195;-82
2023/04/21 00:52:15;;;;;;;5.63;3.30;;;9.50;99.90;;;;;;5024863;28;20683;-81
2023/04/21 00:54:41;;;;;;;4.93;4.47;;;9.50;99.90;;;;;;5009381;28;20194;-81
2023/04/21 00:57:08;;;;;;;6.17;4.63;;;9.50;99.90;;;;;;5009181;28;20423;-81
2023/04/21 00:59:35;;;;;;;2.90;2.73;;;9.40;99.90;;;;;;5024439;28;20175;-81
2023/04/21 01:02:00;;;;;;;6.43;3.87;;;9.40;99.90;;;;;;5024133;28;20187;-81
2023/04/21 01:04:27;;;;;;;5.73;3.80;;;9.30;99.90;;;;;;5024617;28;20189;-82
2023/04/21 01:06:53;;;;;;;3.37;3.07;;;9.20;99.90;;;;;;5009211;28;20183;-81
2023/04/21 01:09:20;;;;;;;6.40;4.33;;;9.20;99.90;;;;;;5009646;28;20184;-83
2023/04/21 01:12:09;;;;;;;5.63;4.03;;;9.10;99.90;;;;;;5008437;28;20187;-81
2023/04/21 01:14:37;;;;;;;8.30;5.03;;;9.10;99.90;;;;;;5009479;28;20199;-81
2023/04/21 01:17:04;;;;;;;5.67;4.37;;;9.10;99.90;;;;;;5024113;28;20179;-81
2023/04/21 01:19:32;;;;;;;3.67;2.93;;;9.10;99.90;;;;;;5009063;28;20182;-83
2023/04/21 01:21:59;;;;;;;9.80;5.90;;;9.00;99.90;;;;;;5024071;28;20175;-81
2023/04/21 01:24:38;;;;;;;6.07;4.27;;;9.00;99.90;;;;;;5023805;28;20183;-81
2023/04/21 01:27:09;;;;;;;5.50;3.47;;;9.00;99.90;;;;;;5009032;28;20192;-80
2023/04/21 01:29:35;;;;;;;3.07;2.73;;;8.90;99.90;;;;;;5008986;28;20229;-82
2023/04/21 01:32:09;;;;;;;5.03;3.50;;;8.90;99.90;;;;;;5008727;28;20187;-81
2023/04/21 01:34:35;;;;;;;14.90;5.63;;;8.90;99.90;;;;;;5023944;28;20618;-81
2023/04/21 01:37:01;;;;;;;7.07;5.07;;;8.90;99.90;;;;;;5023279;28;20230;-81
2023/04/21 01:39:27;;;;;;;4.47;3.87;;;8.90;99.90;;;;;;5008619;28;20198;-81
2023/04/21 01:41:56;;;;;;;5.53;3.67;;;8.90;99.90;;;;;;5008476;28;20524;-82
2023/04/21 01:44:23;;;;;;;10.10;5.07;;;8.90;99.90;;;;;;5024042;28;20183;-80
2023/04/21 01:46:50;;;;;;;6.07;4.33;;;8.90;99.90;;;;;;5008261;28;20285;-81
2023/04/21 01:49:16;;;;;;;9.33;6.00;;;8.90;99.90;;;;;;5008576;28;20183;-81
2023/04/21 01:51:42;;;;;;;5.57;4.97;;;8.90;99.90;;;;;;5008508;28;20609;-82
2023/04/21 01:54:08;;;;;;;14.50;6.00;;;8.90;99.90;;;;;;5023395;28;20726;-81
2023/04/21 01:56:33;;;;;;;4.97;4.23;;;8.80;99.90;;;;;;5008246;28;20188;-82
2023/04/21 01:58:59;;;;;;;10.27;4.03;;;8.90;99.90;;;;;;5008373;28;20294;-81
2023/04/21 02:01:25;;;;;;;8.53;5.40;;;8.90;99.90;;;;;;5023057;28;20273;-82
2023/04/21 02:03:51;;;;;;;5.03;3.40;;;8.80;99.90;;;;;;5023653;28;20194;-81
2023/04/21 02:06:17;;;;;;;3.40;3.10;;;8.90;99.90;;;;;;5008186;28;20183;-83
2023/04/21 02:08:42;;;;;;;11.00;4.17;;;8.90;99.90;;;;;;5023285;28;20176;-81
2023/04/21 02:11:08;;;;;;;10.97;4.80;;;8.80;99.90;;;;;;5023381;28;20238;-82
2023/04/21 02:13:34;;;;;;;5.50;4.07;;;8.90;99.90;;;;;;5008068;28;20465;-82
2023/04/21 02:16:00;;;;;;;11.37;5.37;;;8.80;99.90;;;;;;5008418;28;20175;-81
2023/04/21 02:18:28;;;;;;;6.83;5.80;;;8.80;99.90;;;;;;5008360;28;20245;-81
2023/04/21 02:20:55;;;;;;;5.60;4.43;;;8.80;99.90;;;;;;5007908;28;20183;-82
2023/04/21 02:23:20;;;;;;;8.20;4.03;;;8.80;99.90;;;;;;5023321;28;20186;-81
2023/04/21 02:25:46;;;;;;;6.80;4.20;;;8.80;99.90;;;;;;5027063;28;20183;-81
2023/04/21 02:28:12;;;;;;;2.67;2.47;;;8.80;99.90;;;;;;5027155;28;20230;-83
2023/04/21 02:30:38;;;;;;;5.43;3.30;;;8.80;99.90;;;;;;5012056;28;20175;-82
2023/04/21 02:33:03;;;;;;;5.97;5.20;;;8.80;99.90;;;;;;5026771;28;20676;-82
2023/04/21 02:35:29;;;;;;;8.30;6.40;;;8.80;99.90;;;;;;5027166;28;20179;-81
2023/04/21 02:37:55;;;;;;;5.73;4.93;;;8.80;99.90;;;;;;5011847;28;20187;-82
2023/04/21 02:40:21;;;;;;;4.60;3.70;;;8.80;99.90;;;;;;5011774;28;20210;-81
2023/04/21 02:42:47;;;;;;;6.20;4.43;;;8.80;99.90;;;;;;5027200;28;20190;-81
2023/04/21 02:45:13;;;;;;;9.87;4.80;;;8.80;99.90;;;;;;5027182;28;20175;-82
2023/04/21 02:47:38;;;;;;;5.53;5.00;;;8.80;99.90;;;;;;5026984;28;20229;-81
2023/04/21 02:50:05;;;;;;;5.77;4.33;;;8.80;99.90;;;;;;5026691;28;20273;-80
2023/04/21 02:52:35;;;;;;;9.67;6.00;;;8.80;99.90;;;;;;5026711;28;20187;-83
2023/04/21 02:55:02;;;;;;;4.33;4.00;;;8.80;99.90;;;;;;5011538;28;20737;-81
2023/04/21 02:57:28;;;;;;;5.40;4.10;;;8.80;99.90;;;;;;5026870;28;20633;-81
2023/04/21 02:59:54;;;;;;;7.70;5.63;;;8.80;99.90;;;;;;5026505;28;20215;-81
2023/04/21 03:02:20;;;;;;;5.03;4.53;;;8.80;99.90;;;;;;5026448;28;20183;-82
2023/04/21 03:04:46;;;;;;;4.13;3.77;;;8.80;99.90;;;;;;5026992;28;20183;-81
2023/04/21 03:07:12;;;;;;;5.73;4.57;;;8.80;99.90;;;;;;5011375;28;20175;-81
2023/04/21 03:09:39;;;;;;;3.27;2.97;;;8.80;99.90;;;;;;5011376;28;20319;-82
2023/04/21 03:12:05;;;;;;;6.07;3.87;;;8.70;99.90;;;;;;5011378;28;20253;-81
2023/04/21 03:14:31;;;;;;;9.57;5.57;;;8.70;99.90;;;;;;5026324;28;20219;-82
2023/04/21 03:16:56;;;;;;;11.13;3.03;;;8.70;99.90;;;;;;5026373;28;20197;-82
2023/04/21 03:19:22;;;;;;;4.83;3.90;;;8.70;99.90;;;;;;5026120;28;20179;-82
2023/04/21 03:21:48;;;;;;;6.60;5.90;;;8.60;99.90;;;;;;5011487;28;20187;-81
2023/04/21 03:24:14;;;;;;;7.97;6.10;;;8.70;99.90;;;;;;5011217;28;20595;-81
2023/04/21 03:26:40;;;;;;;3.80;3.03;;;8.70;99.90;;;;;;5011120;28;20222;-82
2023/04/21 03:29:06;;;;;;;4.60;3.43;;;8.70;99.90;;;;;;5011365;28;20744;-81
2023/04/21 03:31:32;;;;;;;5.50;4.17;;;8.60;99.90;;;;;;5011054;28;20180;-81
2023/04/21 03:33:58;;;;;;;7.97;4.67;;;8.60;99.90;;;;;;5026018;28;20208;-81
2023/04/21 03:36:24;;;;;;;8.33;4.00;;;8.60;99.90;;;;;;5009174;28;20231;-80
2023/04/21 03:38:50;;;;;;;5.87;5.07;;;8.60;99.90;;;;;;5025992;28;20192;-82
2023/04/21 03:41:15;;;;;;;4.17;3.77;;;8.50;99.90;;;;;;5025723;28;20191;-82
2023/04/21 03:43:44;;;;;;;6.27;5.67;;;8.50;99.90;;;;;;5010634;28;20187;-82
2023/04/21 03:46:17;;;;;;;9.47;4.23;;;8.50;99.90;;;;;;5025593;28;20348;-81
2023/04/21 03:48:44;;;;;;;5.13;4.33;;;8.50;99.90;;;;;;5010841;28;20187;-81
2023/04/21 03:51:09;;;;;;;9.80;5.23;;;8.50;99.90;;;;;;5025683;28;20641;-82
2023/04/21 03:53:35;;;;;;;12.17;4.57;;;8.50;99.90;;;;;;5025767;28;20309;-81
2023/04/21 03:56:01;;;;;;;6.80;3.87;;;8.50;99.90;;;;;;5010353;28;20197;-81
2023/04/21 03:58:27;;;;;;;4.27;3.50;;;8.60;99.90;;;;;;5025419;28;20179;-81
2023/04/21 04:00:52;;;;;;;4.93;4.60;;;8.60;99.90;;;;;;5025610;28;20182;-81
2023/04/21 04:03:18;;;;;;;4.67;4.23;;;8.60;99.90;;;;;;5010424;28;20230;-81
2023/04/21 04:05:44;;;;;;;7.37;4.50;;;8.60;99.90;;;;;;5025986;28;20826;-81
2023/04/21 04:08:10;;;;;;;9.10;2.57;;;8.50;99.90;;;;;;5010355;28;20520;-82
2023/04/21 04:10:35;;;;;;;4.80;2.77;;;8.50;99.90;;;;;;5025630;28;20519;-83
2023/04/21 04:13:01;;;;;;;6.17;4.50;;;8.50;99.90;;;;;;5025221;28;20204;-81
2023/04/21 04:15:27;;;;;;;5.70;4.37;;;8.50;99.90;;;;;;5025115;28;20183;-81
2023/04/21 04:17:53;;;;;;;6.57;3.33;;;8.50;99.90;;;;;;5024779;28;20210;-82
2023/04/21 04:20:18;;;;;;;5.47;3.47;;;8.50;99.90;;;;;;5024505;28;20179;-82
2023/04/21 04:22:44;;;;;;;4.47;3.33;;;8.50;99.90;;;;;;5024830;28;20188;-81
2023/04/21 04:25:11;;;;;;;6.77;5.30;;;8.50;99.90;;;;;;5009409;28;20540;-81
2023/04/21 04:27:37;;;;;;;4.43;3.93;;;8.50;99.90;;;;;;5025126;28;20175;-81
2023/04/21 04:30:04;;;;;;;3.93;3.57;;;8.50;99.90;;;;;;5025044;28;20182;-82
2023/04/21 04:32:32;;;;;;;5.63;4.37;;;8.50;99.90;;;;;;5025053;28;20171;-81
2023/04/21 04:34:58;;;;;;;4.67;4.07;;;8.50;99.90;;;;;;5024730;28;20175;-81
2023/04/21 04:37:24;;;;;;;2.93;2.10;;;8.60;99.90;;;;;;5009110;28;20358;-83
2023/04/21 04:39:53;;;;;;;3.07;2.87;;;8.60;99.90;;;;;;5024623;28;20185;-81
2023/04/21 04:42:24;;;;;;;6.23;2.53;;;8.60;99.90;;;;;;5009523;28;20179;-81
2023/04/21 04:44:52;;;;;;;2.47;2.27;;;8.70;99.90;;;;;;5024427;28;20243;-81
2023/04/21 04:47:18;;;;;;;4.93;3.33;;;8.70;99.90;;;;;;5008423;28;20179;-80
2023/04/21 04:49:47;;;;;;;9.40;5.03;;;8.70;99.90;;;;;;5024381;28;20178;-81
2023/04/21 04:52:12;;;;;;;5.13;3.57;;;8.70;99.90;;;;;;5009219;28;20658;-81
2023/04/21 04:54:38;;;;;;;5.63;3.33;;;8.60;99.90;;;;;;5009289;28;20207;-80
2023/04/21 04:57:04;;;;;;;6.07;5.03;;;8.60;99.90;;;;;;5009006;28;20261;-81
2023/04/21 04:59:30;;;;;;;4.13;3.83;;;8.60;99.90;;;;;;5009204;28;20203;-82
2023/04/21 05:01:56;;;;;;;4.23;3.93;;;8.70;99.90;;;;;;5024252;28;20261;-82
2023/04/21 05:04:22;;;;;;;3.17;2.53;;;8.70;99.90;;;;;;5009261;28;20233;-82
2023/04/21 05:06:48;;;;;;;6.50;4.10;;;8.70;99.90;;;;;;5009483;28;20184;-81
2023/04/21 05:09:15;;;;;;;4.80;4.30;;;8.70;99.90;;;;;;5024267;28;20230;-81
2023/04/21 05:11:41;;;;;;;10.60;4.27;;;8.80;99.90;;;;;;5023965;28;20593;-83
2023/04/21 05:14:06;;;;;;;4.83;4.13;;;8.80;99.90;;;;;;5024057;28;20319;-81
2023/04/21 05:16:33;;;;;;;6.97;4.97;;;8.90;99.90;;;;;;5024129;28;20202;-82
2023/04/21 05:19:03;;;;;;;5.33;4.83;;;9.10;99.90;;;;;;5009292;28;20290;-82
2023/04/21 05:21:30;;;;;;;5.67;3.87;;;9.60;99.90;;;;;;5008555;28;20180;-81
2023/04/21 05:23:56;;;;;;;8.63;4.83;;;10.00;99.90;;;;;;5023964;28;20604;-82
2023/04/21 05:26:23;;;;;;;4.13;3.77;;;10.50;99.90;;;;;;5008501;28;20188;-81
2023/04/21 05:28:49;;;;;;;6.50;4.37;;;10.50;99.90;;;;;;5023839;28;20180;-81
2023/04/21 05:31:14;;;;;;;5.70;3.00;;;10.40;99.90;;;;;;5023909;28;20599;-81
2023/04/21 05:33:40;;;;;;;6.43;3.87;;;10.60;99.90;;;;;;5008798;28;20204;-81
2023/04/21 05:36:08;;;;;;;6.87;3.20;;;10.60;99.90;;;;;;5023401;28;20649;-81
2023/04/21 05:38:35;;;;;;;8.40;4.20;;;10.70;99.90;;;;;;5007284;28;20174;-81
2023/04/21 05:41:01;;;;;;;4.77;3.77;;;10.90;99.90;;;;;;5023709;28;20186;-81
2023/04/21 05:43:26;;;;;;;9.10;4.33;;;11.40;99.90;;;;;;5023701;28;20218;-82
2023/04/21 05:45:53;;;;;;;5.83;4.30;;;11.70;99.90;;;;;;5023667;28;20211;-82
2023/04/21 05:48:18;;;;;;;4.87;3.97;;;12.10;99.90;;;;;;5008157;28;20210;-82
2023/04/21 05:50:44;;;;;;;5.70;4.27;;;11.90;99.90;;;;;;5009000;28;20648;-81
2023/04/21 05:53:10;;;;;;;6.23;3.60;;;12.00;99.90;;;;;;5023490;28;20211;-81
2023/04/21 05:55:38;;;;;;;6.33;5.60;;;12.20;99.90;;;;;;5023767;28;20210;-81
2023/04/21 05:58:04;;;;;;;8.17;5.07;;;12.40;99.90;;;;;;5024082;28;20171;-81
2023/04/21 06:00:30;;;;;;;3.73;3.43;;;12.20;99.90;;;;;;5023668;28;20179;-81
2023/04/21 06:02:55;;;;;;;5.43;3.87;;;12.50;99.90;;;;;;5023471;28;20635;-81
2023/04/21 06:05:24;;;;;;;4.87;3.67;;;12.50;99.90;;;;;;5022989;28;20244;-81
2023/04/21 06:07:49;;;;;;;6.27;4.67;;;12.40;99.90;;;;;;5008346;28;20172;-81
2023/04/21 06:10:17;;;;;;;4.13;3.67;;;12.30;99.90;;;;;;5023311;28;20183;-81
2023/04/21 06:12:42;;;;;;;5.87;3.80;;;12.00;99.90;;;;;;5008479;28;20175;-81
2023/04/21 06:15:08;;;;;;;3.30;2.93;;;12.00;99.90;;;;;;5008270;28;20183;-82
2023/04/21 06:17:34;;;;;;;7.83;4.17;;;12.30;99.90;;;;;;5023162;28;20182;-82
2023/04/21 06:20:00;;;;;;;5.43;4.77;;;12.30;99.90;;;;;;5023014;28;20528;-81
2023/04/21 06:22:26;;;;;;;3.97;3.40;;;12.40;99.90;;;;;;5023050;28;20215;-82
2023/04/21 06:24:52;;;;;;;3.17;2.87;;;12.70;99.90;;;;;;5008046;28;20186;-81
2023/04/21 06:27:18;;;;;;;8.13;4.53;;;12.40;99.90;;;;;;5022863;28;20348;-82
2023/04/21 06:29:44;;;;;;;4.63;3.20;;;12.40;99.90;;;;;;5022844;28;20190;-83
2023/04/21 06:32:10;;;;;;;8.30;4.37;;;12.70;99.90;;;;;;5023194;28;20222;-82
2023/04/21 06:34:36;;;;;;;10.33;4.50;;;12.80;99.90;;;;;;5007669;28;20212;-80
2023/04/21 06:37:02;;;;;;;5.23;4.37;;;12.70;99.90;;;;;;5007667;28;20782;-82
2023/04/21 06:39:28;;;;;;;4.43;3.57;;;12.80;99.90;;;;;;5023211;28;20207;-83
2023/04/21 06:41:57;;;;;;;3.70;3.23;;;13.00;99.90;;;;;;5023071;28;20187;-82
2023/04/21 06:44:22;;;;;;;4.73;3.63;;;12.90;99.90;;;;;;5007671;28;20233;-81
2023/04/21 06:46:48;;;;;;;7.23;4.27;;;12.90;99.90;;;;;;5023095;28;20202;-82
2023/04/21 06:49:14;;;;;;;6.03;4.10;;;13.20;99.90;;;;;;5007992;28;20179;-82
2023/04/21 06:51:40;;;;;;;4.80;4.20;;;13.10;99.90;;;;;;5022558;28;20505;-82
2023/04/21 06:54:06;;;;;;;5.47;4.30;;;13.30;99.90;;;;;;5006968;28;20234;-82
2023/04/21 06:56:32;;;;;;;4.87;3.87;;;13.00;99.90;;;;;;5022477;28;20214;-82
2023/04/21 06:58:57;;;;;;;4.77;4.20;;;13.20;99.90;;;;;;5022539;28;20532;-83
2023/04/21 07:01:23;;;;;;;10.47;4.47;;;13.00;99.90;;;;;;5007574;28;20175;-82
2023/04/21 07:03:52;;;;;;;4.27;3.13;;;13.10;99.90;;;;;;5022372;28;20183;-82
2023/04/21 07:06:17;;;;;;;3.43;2.97;;;13.20;99.90;;;;;;5007443;28;20207;-83
2023/04/21 07:08:43;;;;;;;3.90;3.60;;;13.20;99.90;;;;;;5007626;28;20655;-82
2023/04/21 07:11:09;;;;;;;5.50;4.27;;;13.60;99.90;;;;;;5025281;28;20270;-82
2023/04/21 07:13:35;;;;;;;6.00;4.20;;;12.90;99.90;;;;;;5026341;28;20303;-82
2023/04/21 07:16:00;;;;;;;7.57;4.17;;;13.20;99.90;;;;;;5011424;28;20654;-82
2023/04/21 07:18:26;;;;;;;6.97;4.10;;;13.80;99.90;;;;;;5011455;28;20211;-81
2023/04/21 07:20:52;;;;;;;6.20;3.53;;;14.00;99.90;;;;;;5026382;28;20179;-82
2023/04/21 07:23:18;;;;;;;6.70;4.93;;;13.70;99.90;;;;;;5026181;28;20233;-81
2023/04/21 07:25:43;;;;;;;5.50;4.63;;;13.70;99.90;;;;;;5026082;28;20178;-82
2023/04/21 07:28:09;;;;;;;8.07;4.63;;;13.90;99.90;;;;;;5011216;28;20691;-82
2023/04/21 07:30:36;;;;;;;6.13;3.67;;;13.90;99.90;;;;;;5010856;28;20183;-83
2023/04/21 07:33:02;;;;;;;6.47;3.30;;;13.70;99.90;;;;;;5011178;28;20270;-82
2023/04/21 07:35:27;;;;;;;7.67;2.90;;;13.70;99.90;;;;;;5025920;28;20262;-82
2023/04/21 07:37:53;;;;;;;6.57;4.90;;;13.90;99.90;;;;;;5026078;28;20322;-82
2023/04/21 07:40:19;;;;;;;10.40;4.40;;;14.60;99.90;;;;;;5010539;28;20183;-81
2023/04/21 07:42:45;;;;;;;6.47;3.83;;;14.30;99.90;;;;;;5011213;28;20408;-82
2023/04/21 07:45:11;;;;;;;7.73;4.57;;;14.30;99.90;;;;;;5010364;28;20533;-82
2023/04/21 07:47:37;;;;;;;5.13;4.03;;;14.20;99.90;;;;;;5025874;28;20271;-82
2023/04/21 07:50:03;;;;;;;6.63;3.90;;;14.70;99.90;;;;;;5025467;28;20262;-83
2023/04/21 07:52:29;;;;;;;4.20;3.90;;;14.40;99.90;;;;;;5025774;28;20173;-81
2023/04/21 07:54:55;;;;;;;8.93;4.73;;;14.20;99.90;;;;;;5025649;28;20574;-81
2023/04/21 07:57:20;;;;;;;4.90;3.30;;;14.20;99.90;;;;;;5025714;28;20632;-82
2023/04/21 08:01:03;;;;;;;4.53;4.13;;;14.60;99.90;;;;;;5097413;27;20626;-82
2023/04/21 08:03:29;;;;;;;7.93;5.00;;;14.50;99.90;;;;;;5041148;28;20449;-81
2023/04/21 08:05:54;;;;;;;12.30;4.37;;;14.70;99.90;;;;;;5059875;28;20217;-81
2023/04/21 08:08:20;;;;;;;6.10;4.20;;;15.10;99.90;;;;;;5061831;27;20221;-81
2023/04/21 08:10:46;;;;;;;6.40;5.20;;;15.20;99.90;;;;;;5043116;28;20216;-82
2023/04/21 08:13:12;;;;;;;5.57;4.30;;;15.50;99.90;;;;;;5059607;27;20208;-82
2023/04/21 08:15:38;;;;;;;7.47;4.43;;;15.00;99.90;;;;;;5061553;28;20305;-81
2023/04/21 08:18:04;;;;;;;5.23;4.10;;;14.90;99.90;;;;;;5060432;27;20299;-82
2023/04/21 08:20:29;;;;;;;7.57;3.73;;;15.00;99.90;;;;;;5066848;27;20670;-81
2023/04/21 08:22:57;;;;;;;9.20;4.03;;;15.20;99.90;;;;;;5062799;27;20221;-82
2023/04/21 08:25:22;;;;;;;7.07;4.17;;;15.30;99.90;;;;;;5063599;28;20654;-82
2023/04/21 08:27:48;;;;;;;5.63;3.83;;;15.20;99.90;;;;;;5069763;28;20200;-80
2023/04/21 08:30:14;;;;;;;5.77;3.93;;;15.10;99.90;;;;;;5060228;27;20205;-81
2023/04/21 08:32:40;;;;;;;5.47;4.43;;;15.40;99.90;;;;;;5068035;28;20207;-81
2023/04/21 08:35:06;;;;;;;4.83;4.23;;;15.20;99.90;;;;;;5066022;28;20570;-80
2023/04/21 08:37:34;;;;;;;6.30;3.93;;;15.20;99.90;;;;;;5066170;28;20225;-81
2023/04/21 08:40:00;;;;;;;8.07;5.17;;;15.40;99.90;;;;;;5060247;27;20849;-81
2023/04/21 08:42:26;;;;;;;10.40;4.33;;;15.60;99.90;;;;;;5068080;28;20196;-81
2023/04/21 08:44:51;;;;;;;12.40;5.03;;;15.50;99.90;;;;;;5057780;28;20226;-81
2023/04/21 08:47:19;;;;;;;5.13;4.50;;;15.60;99.90;;;;;;5072122;27;20224;-81
2023/04/21 08:49:48;;;;;;;7.03;4.40;;;15.90;99.90;;;;;;5064043;27;20275;-81
2023/04/21 08:52:14;;;;;;;7.17;4.30;;;15.80;99.90;;;;;;5069606;27;20782;-81
2023/04/21 08:54:40;;;;;;;7.13;4.47;;;15.80;99.90;;;;;;5063511;28;20292;-81
2023/04/21 08:57:06;;;;;;;7.17;3.97;;;15.90;99.90;;;;;;5064007;27;20590;-81
2023/04/21 08:59:31;;;;;;;7.13;3.90;;;16.00;99.90;;;;;;5062205;27;20755;-81
2023/04/21 09:02:18;;;;;;;8.10;5.43;;;16.10;99.90;;;;;;5057252;28;20734;-81
2023/04/21 09:04:45;;;;;;;5.63;4.30;;;16.30;99.90;;;;;;5061485;27;20213;-81
2023/04/21 09:07:28;;;;;;;5.90;4.20;;;16.50;99.90;;;;;;5059388;27;20290;-80
2023/04/21 09:09:55;;;;;;;4.27;3.87;;;16.20;99.90;;;;;;5069621;28;20607;-83
2023/04/21 09:12:21;;;;;;;9.27;4.93;;;16.20;99.90;;;;;;5041368;28;20226;-82
2023/04/21 09:14:47;;;;;;;7.90;3.70;;;15.90;99.90;;;;;;5048434;27;20261;-82
2023/04/21 09:17:15;;;;;;;9.67;4.30;;;16.00;99.90;;;;;;5051563;27;20248;-81
2023/04/21 09:19:42;;;;;;;8.90;4.37;;;16.10;99.90;;;;;;5054193;27;20242;-82
2023/04/21 09:22:07;;;;;;;6.07;4.37;;;16.10;99.90;;;;;;5048647;28;20602;-81
2023/04/21 09:24:33;;;;;;;5.53;3.93;;;16.50;99.90;;;;;;5049294;28;20193;-81
2023/04/21 09:27:03;;;;;;;6.43;5.30;;;16.00;99.90;;;;;;5049828;28;20667;-81
2023/04/21 09:29:29;;;;;;;9.17;4.53;;;16.00;99.90;;;;;;5047761;28;20249;-81
2023/04/21 09:31:54;;;;;;;6.23;4.57;;;16.20;99.90;;;;;;5041290;28;20264;-84
2023/04/21 09:34:23;;;;;;;6.17;3.40;;;16.60;99.90;;;;;;5046499;28;20749;-81
2023/04/21 09:37:00;;;;;;;7.47;4.20;;;16.50;99.90;;;;;;5045947;28;20674;-83
2023/04/21 09:39:27;;;;;;;5.97;3.20;;;16.60;99.90;;;;;;5046541;28;20241;-82
2023/04/21 09:41:53;;;;;;;9.87;5.20;;;16.60;99.90;;;;;;5045298;28;20783;-82
2023/04/21 09:44:19;;;;;;;14.80;5.43;;;16.60;99.90;;;;;;5044070;28;20225;-80
2023/04/21 09:46:48;;;;;;;5.33;3.73;;;16.50;99.90;;;;;;5045206;28;20245;-83
2023/04/21 09:49:17;;;;;;;6.40;4.80;;;16.70;99.90;;;;;;5045027;28;20198;-82
2023/04/21 09:51:44;;;;;;;5.63;4.00;;;16.90;99.90;;;;;;5048020;28;20182;-82
2023/04/21 09:54:16;;;;;;;6.63;4.67;;;17.10;99.90;;;;;;5046851;27;20248;-82
2023/04/21 09:56:44;;;;;;;4.70;4.13;;;17.00;99.90;;;;;;5044052;28;20225;-82
2023/04/21 09:59:18;;;;;;;9.63;4.47;;;17.00;99.90;;;;;;5046418;28;20242;-82
2023/04/21 10:01:48;;;;;;;6.27;4.77;;;16.90;99.90;;;;;;5050733;27;20233;-82
2023/04/21 10:04:15;;;;;;;5.73;4.10;;;17.00;99.90;;;;;;5051569;28;20193;-84
2023/04/21 10:06:41;;;;;;;9.07;4.47;;;17.20;99.90;;;;;;5051364;28;20225;-83
2023/04/21 10:09:09;;;;;;;7.67;4.63;;;17.10;99.90;;;;;;5045385;28;20312;-82
2023/04/21 10:11:39;;;;;;;9.43;5.30;;;16.90;99.90;;;;;;5045460;28;20205;-81
2023/04/21 10:14:07;;;;;;;5.53;4.30;;;17.10;99.90;;;;;;5052582;28;20228;-82
2023/04/21 10:16:36;;;;;;;5.63;4.60;;;17.30;99.90;;;;;;5080466;28;20717;-83
2023/04/21 10:19:25;;;;;;;6.70;4.90;;;17.50;99.90;;;;;;5047267;27;20244;-82
2023/04/21 10:21:54;;;;;;;7.93;4.83;;;17.20;99.90;;;;;;5045923;28;20194;-85
2023/04/21 10:24:19;;;;;;;5.03;3.30;;;17.20;99.90;;;;;;5049281;27;20214;-82
2023/04/21 10:26:45;;;;;;;6.60;4.87;;;17.00;99.90;;;;;;5042826;28;20825;-81
2023/04/21 10:29:15;;;;;;;10.80;4.30;;;17.20;99.90;;;;;;5047659;28;20642;-81
2023/04/21 10:31:43;;;;;;;8.47;5.37;;;17.20;99.90;;;;;;5046843;28;20291;-82
2023/04/21 10:34:11;;;;;;;9.53;5.23;;;17.20;99.90;;;;;;5044713;28;20198;-82
2023/04/21 10:36:58;;;;;;;7.47;5.73;;;17.40;99.90;;;;;;5042972;28;20616;-81
2023/04/21 10:39:24;;;;;;;5.57;3.67;;;17.40;99.90;;;;;;5056750;28;20238;-84
2023/04/21 10:41:50;;;;;;;6.73;4.63;;;17.40;99.90;;;;;;5045126;28;20629;-81
2023/04/21 10:44:16;;;;;;;3.53;3.10;;;17.10;99.90;;;;;;5041712;28;20249;-82
2023/04/21 10:46:46;;;;;;;4.50;3.80;;;17.10;99.90;;;;;;5045050;28;20222;-81
2023/04/21 10:49:20;;;;;;;7.83;5.00;;;17.30;99.90;;;;;;5046113;28;20194;-81
2023/04/21 10:52:04;;;;;;;6.93;4.63;;;17.80;99.90;;;;;;5044450;28;21044;-82
2023/04/21 10:54:55;;;;;;;5.53;5.00;;;17.70;99.90;;;;;;5047705;28;20553;-82
2023/04/21 10:57:21;;;;;;;4.77;3.27;;;17.70;99.90;;;;;;5039943;28;20782;-81
2023/04/21 10:59:48;;;;;;;6.70;4.47;;;17.30;99.90;;;;;;5057537;28;20242;-82
2023/04/21 11:02:16;;;;;;;7.77;5.03;;;17.00;99.90;;;;;;5049466;28;20218;-82
2023/04/21 11:04:48;;;;;;;7.00;4.87;;;17.40;99.90;;;;;;5043977;28;20263;-83
2023/04/21 11:07:24;;;;;;;12.10;5.00;;;17.90;99.90;;;;;;5056529;28;20663;-82
2023/04/21 11:10:00;;;;;;;5.67;3.97;;;18.10;99.90;;;;;;5046829;28;20272;-84
2023/04/21 11:12:31;;;;;;;7.27;4.87;;;18.10;99.90;;;;;;5049187;28;20295;-82
2023/04/21 11:14:58;;;;;;;9.97;4.80;;;18.00;99.90;;;;;;5044980;27;20214;-82
2023/04/21 11:17:24;;;;;;;6.53;5.10;;;18.40;99.90;;;;;;5046061;28;20224;-83
2023/04/21 11:19:55;;;;;;;6.10;4.57;;;18.30;99.90;;;;;;5044028;28;20279;-83
2023/04/21 11:22:25;;;;;;;6.70;4.87;;;18.60;99.90;;;;;;5040018;28;20585;-84
2023/04/21 11:24:55;;;;;;;7.07;4.90;;;18.30;99.90;;;;;;5049766;28;20272;-85
2023/04/21 11:27:21;;;;;;;9.47;4.83;;;18.40;99.90;;;;;;5041953;28;20216;-84
2023/04/21 11:29:49;;;;;;;9.77;4.93;;;18.30;99.90;;;;;;5044495;28;20272;-85
2023/04/21 11:32:15;;;;;;;6.90;4.37;;;17.70;99.90;;;;;;5046385;28;20263;-84
2023/04/21 11:34:41;;;;;;;6.83;4.57;;;17.50;99.90;;;;;;5043789;28;20249;-85
2023/04/21 11:37:22;;;;;;;5.83;4.53;;;17.30;99.90;;;;;;5040784;28;20240;-83
2023/04/21 11:39:47;;;;;;;7.27;4.47;;;17.20;99.90;;;;;;5042336;28;20212;-82
2023/04/21 11:42:21;;;;;;;10.63;4.37;;;17.30;99.90;;;;;;5047510;28;20221;-83
2023/04/21 11:44:47;;;;;;;7.47;5.20;;;17.20;99.90;;;;;;5051672;28;20324;-83
2023/04/21 11:47:18;;;;;;;7.33;5.10;;;17.00;99.90;;;;;;5049152;28;20213;-83
2023/04/21 11:50:02;;;;;;;5.67;4.77;;;16.70;99.90;;;;;;5045880;28;20214;-83
2023/04/21 11:52:36;;;;;;;5.63;4.70;;;17.20;99.90;;;;;;5045692;28;20674;-83
2023/04/21 11:55:19;;;;;;;9.37;6.47;;;17.30;99.90;;;;;;5047458;28;20185;-84
2023/04/21 11:57:45;;;;;;;11.10;5.73;;;17.30;99.90;;;;;;5046030;28;20255;-84
2023/04/21 12:00:14;;;;;;;12.50;6.93;;;17.00;99.90;;;;;;5047910;28;20248;-83
2023/04/21 12:02:40;;;;;;;10.87;6.13;;;16.90;99.90;;;;;;5042741;28;20228;-84
2023/04/21 12:05:10;;;;;;;10.37;6.30;;;17.10;99.90;;;;;;5044420;27;20224;-85
2023/04/21 12:07:45;;;;;;;6.30;5.27;;;17.10;99.90;;;;;;5076692;27;20949;-83
2023/04/21 12:10:21;;;;;;;7.57;6.07;;;16.60;99.90;;;;;;5046036;28;20297;-84
2023/04/21 12:12:47;;;;;;;10.90;6.43;;;16.70;99.90;;;;;;5049204;28;20184;-83
2023/04/21 12:15:22;;;;;;;9.37;5.77;;;16.40;99.90;;;;;;5047057;28;20346;-83
2023/04/21 12:17:52;;;;;;;7.33;5.33;;;16.20;99.90;;;;;;5045793;28;20213;-82
2023/04/21 12:20:20;;;;;;;10.17;5.33;;;16.10;99.90;;;;;;5048947;27;20238;-82
2023/04/21 12:22:47;;;;;;;13.07;5.50;;;16.00;99.90;;;;;;5043875;28;20221;-84
2023/04/21 12:25:14;;;;;;;11.07;5.70;;;15.70;99.90;;;;;;5049860;28;20526;-85
2023/04/21 12:27:50;;;;;;;15.63;6.77;;;15.60;99.90;;;;;;5043300;28;20650;-86
2023/04/21 12:30:17;;;;;;;10.40;6.23;;;15.70;99.90;;;;;;5041287;28;20223;-83
2023/04/21 12:32:42;;;;;;;9.47;5.97;;;15.60;99.90;;;;;;5039019;28;20247;-82
2023/04/21 12:35:08;;;;;;;6.30;4.63;;;15.70;99.90;;;;;;5042120;28;20582;-83
2023/04/21 12:37:35;;;;;;;7.93;5.30;;;15.80;99.90;;;;;;5045775;27;20220;-83
2023/04/21 12:40:00;;;;;;;9.40;4.27;;;16.20;99.90;;;;;;5046431;28;20576;-83
2023/04/21 12:42:26;;;;;;;7.43;4.87;;;16.40;99.90;;;;;;5046630;28;20675;-84
2023/04/21 12:44:52;;;;;;;10.87;5.67;;;16.20;99.90;;;;;;5040083;28;20233;-83
2023/04/21 12:47:18;;;;;;;8.33;5.70;;;16.20;99.90;;;;;;5044680;28;20308;-84
2023/04/21 12:49:43;;;;;;;8.60;5.60;;;16.10;99.90;;;;;;5049631;28;20636;-83
2023/04/21 12:52:09;;;;;;;5.47;4.97;;;15.90;99.90;;;;;;5052495;28;20659;-85